aviador You're here:

YTEF Decoded Metar

TELFER AIRPORT in _UNIDENTIFIED
Report Time2017-11-24 08:00:00
UTC Time2017-11-24 09:04:47
Flight Rules unknown UNKNOWN
Wind170° at 08 kt
W.Decomp.*RWY 12: 5.4 kt HW 5.9 kt RCW
W.Rank170° ranks 10
Current wind is below 170° avg. (9.4)
VisibilityN/A
Phenomena:N/A
Clouds:N/A
Expected CloudBase > 15,200 ft AGL from Temp-Dew spread
CeilingNone
Temp41°C (ISA +28)
Dew Point03°C (9% RH)
Heat Index37.8°C
AAT36.4°C
QNH1005 hPa
Density Alt4,469 ft
Elevation971 ft
Report Wrong Elevation
Raw Report
YTEF 240800Z AUTO 17008KT 160V240 //// // NCD 41/03 Q1005=

Extra information for YTEF:More info

Metar Taf Metar & Taf Last 4 Metars F.Rules Stats Wind Profile Meteogram Temp Stats Airport Information Weather charts Add Link Nearby VenuesMetar ALERT Operation Metar Decoded Social comments